Time;durP1;ratioP1;P1;durP2;ratioP2;P2;SDS_P1;SDS_P2;PMS_P1;PMS_P2;Temp;Humidity;BMP_temperature;BMP_pressure;BME280_temperature;BME280_humidity;BME280_pressure;Samples;Min_cycle;Max_cycle;Signal;HPM_P1;HPM_P2
2022/10/01 00:01:53;;;;;;;7.80;5.55;;;11.90;99.90;;;;;;5108581;28;20397;-74
2022/10/01 00:04:19;;;;;;;7.97;5.87;;;11.90;99.90;;;;;;5108699;28;20433;-73
2022/10/01 00:06:45;;;;;;;7.80;6.05;;;11.80;99.90;;;;;;5109360;27;20404;-73
2022/10/01 00:09:10;;;;;;;7.75;6.10;;;11.80;99.90;;;;;;5108384;27;20424;-73
2022/10/01 00:11:36;;;;;;;7.63;6.00;;;11.70;99.90;;;;;;5108702;27;20400;-73
2022/10/01 00:14:01;;;;;;;8.38;6.03;;;11.70;99.90;;;;;;5109445;27;20403;-73
2022/10/01 00:16:29;;;;;;;7.33;6.20;;;11.70;99.90;;;;;;5109128;27;20440;-73
2022/10/01 00:18:56;;;;;;;8.15;6.75;;;11.70;99.90;;;;;;5108695;27;20902;-73
2022/10/01 00:21:25;;;;;;;9.68;6.95;;;11.60;99.90;;;;;;5108925;27;20412;-73
2022/10/01 00:23:59;;;;;;;9.65;6.95;;;11.60;99.90;;;;;;5107813;27;20584;-72
2022/10/01 00:26:29;;;;;;;9.48;7.32;;;11.60;99.90;;;;;;5108656;28;20449;-72
2022/10/01 00:29:00;;;;;;;9.93;7.20;;;11.60;99.90;;;;;;5108309;27;20529;-73
2022/10/01 00:31:26;;;;;;;10.20;7.25;;;11.50;99.90;;;;;;5108652;28;20400;-73
2022/10/01 00:33:53;;;;;;;10.40;7.80;;;11.50;99.90;;;;;;5108140;28;20886;-74
2022/10/01 00:36:19;;;;;;;11.40;7.95;;;11.50;99.90;;;;;;5120434;27;20828;-73
2022/10/01 00:38:46;;;;;;;9.73;7.28;;;11.50;99.90;;;;;;5127043;27;20406;-73
2022/10/01 00:41:13;;;;;;;10.60;8.20;;;11.50;99.90;;;;;;5128939;27;20390;-74
2022/10/01 00:43:50;;;;;;;10.65;7.82;;;11.40;99.90;;;;;;5128042;27;20398;-73
2022/10/01 00:46:27;;;;;;;11.88;8.80;;;11.40;99.90;;;;;;5126909;27;20395;-73
2022/10/01 00:48:59;;;;;;;11.38;8.88;;;11.40;99.90;;;;;;5116053;27;20434;-73
2022/10/01 00:51:29;;;;;;;11.27;9.23;;;11.30;99.90;;;;;;5105915;28;20400;-72
2022/10/01 00:54:01;;;;;;;12.27;9.30;;;11.30;99.90;;;;;;5101164;28;20522;-73
2022/10/01 00:56:27;;;;;;;13.70;9.25;;;11.30;99.90;;;;;;5128027;27;20403;-73
2022/10/01 00:58:54;;;;;;;14.38;10.07;;;11.30;99.90;;;;;;5115712;27;20495;-74
2022/10/01 01:01:23;;;;;;;12.98;9.80;;;11.30;99.90;;;;;;5126520;27;20398;-72
2022/10/01 01:03:49;;;;;;;13.98;10.55;;;11.30;99.90;;;;;;5126894;27;20403;-73
2022/10/01 01:06:15;;;;;;;14.70;10.90;;;11.30;99.90;;;;;;5109296;27;20455;-73
2022/10/01 01:08:41;;;;;;;15.43;10.65;;;11.30;99.90;;;;;;5108080;28;20503;-73
2022/10/01 01:11:28;;;;;;;12.93;10.40;;;11.30;99.90;;;;;;5108487;28;20404;-72
2022/10/01 01:14:38;;;;;;;14.88;10.80;;;11.30;99.90;;;;;;5108274;28;20408;-73
2022/10/01 01:17:13;;;;;;;16.15;12.18;;;11.30;99.90;;;;;;5049540;28;20450;-73
2022/10/01 01:19:57;;;;;;;17.80;13.03;;;11.20;99.90;;;;;;5102176;28;20470;-73
2022/10/01 01:22:25;;;;;;;19.42;13.30;;;11.30;99.90;;;;;;5119929;28;20436;-74
2022/10/01 01:24:54;;;;;;;17.87;14.27;;;11.20;99.90;;;;;;5117954;28;20504;-72
2022/10/01 01:27:20;;;;;;;16.15;12.75;;;11.20;99.90;;;;;;5120042;28;20412;-73
2022/10/01 01:29:55;;;;;;;14.90;11.17;;;11.20;99.90;;;;;;5116284;28;20762;-73
2022/10/01 01:32:33;;;;;;;18.73;14.48;;;11.20;99.90;;;;;;5108868;28;20396;-73
2022/10/01 01:35:03;;;;;;;18.17;13.65;;;11.20;99.90;;;;;;5107626;28;20404;-73
2022/10/01 01:37:34;;;;;;;16.95;12.00;;;11.20;99.90;;;;;;5115704;27;20531;-73
2022/10/01 01:40:03;;;;;;;19.55;15.02;;;11.20;99.90;;;;;;5126837;27;20402;-74
2022/10/01 01:42:36;;;;;;;20.95;15.38;;;11.20;99.90;;;;;;5128645;27;20398;-73
2022/10/01 01:45:07;;;;;;;18.33;14.77;;;11.20;99.90;;;;;;5126568;27;20405;-73
2022/10/01 01:47:34;;;;;;;21.15;14.55;;;11.20;99.90;;;;;;5114813;27;20436;-73
2022/10/01 01:50:06;;;;;;;17.00;11.60;;;11.20;99.90;;;;;;5107200;28;20477;-72
2022/10/01 01:52:32;;;;;;;18.30;14.20;;;11.20;99.90;;;;;;5107681;28;20408;-73
2022/10/01 01:54:58;;;;;;;20.63;14.63;;;11.20;99.90;;;;;;5124031;27;20470;-73
2022/10/01 01:57:25;;;;;;;20.80;14.90;;;11.20;99.90;;;;;;5125167;27;20412;-73
2022/10/01 01:59:52;;;;;;;22.83;17.00;;;11.20;99.90;;;;;;5116671;28;20459;-72
2022/10/01 02:02:25;;;;;;;19.52;12.55;;;11.20;99.90;;;;;;5120986;27;20469;-73
2022/10/01 02:05:07;;;;;;;22.57;14.20;;;11.10;99.90;;;;;;5124212;27;21092;-72
2022/10/01 02:07:53;;;;;;;17.48;11.63;;;11.10;99.90;;;;;;5136336;28;20411;-72
2022/10/01 02:10:28;;;;;;;17.58;12.98;;;11.10;99.90;;;;;;5129020;27;20398;-73
2022/10/01 02:13:14;;;;;;;16.00;9.67;;;11.10;99.90;;;;;;5111476;27;20461;-73
2022/10/01 02:15:46;;;;;;;17.33;10.57;;;11.10;99.90;;;;;;5131783;27;20415;-74
2022/10/01 02:18:25;;;;;;;15.35;10.30;;;11.00;99.90;;;;;;5131768;27;20402;-74
2022/10/01 02:21:18;;;;;;;14.30;10.20;;;11.00;99.90;;;;;;5115565;27;20412;-73
2022/10/01 02:23:56;;;;;;;12.65;8.23;;;11.00;99.90;;;;;;5105330;27;20409;-73
2022/10/01 02:26:25;;;;;;;14.90;9.75;;;11.00;99.90;;;;;;5130867;27;20410;-73
2022/10/01 02:28:54;;;;;;;14.23;9.52;;;11.00;99.90;;;;;;5115227;27;20432;-73
2022/10/01 02:31:21;;;;;;;13.82;9.43;;;11.00;99.90;;;;;;5110806;28;20994;-72
2022/10/01 02:33:50;;;;;;;13.43;9.15;;;11.00;99.90;;;;;;5111295;28;20673;-73
2022/10/01 02:36:19;;;;;;;16.33;11.15;;;11.00;99.90;;;;;;5119012;27;20396;-73
2022/10/01 02:38:45;;;;;;;16.23;11.65;;;11.00;99.90;;;;;;5123472;27;20414;-72
2022/10/01 02:41:15;;;;;;;17.70;11.18;;;11.00;99.90;;;;;;5110955;27;20627;-72
2022/10/01 02:43:52;;;;;;;16.38;11.10;;;11.00;99.90;;;;;;5123586;27;20398;-73
2022/10/01 02:46:56;;;;;;;18.30;11.35;;;11.00;99.90;;;;;;5112936;27;20431;-74
2022/10/01 02:49:23;;;;;;;22.08;13.15;;;11.00;99.90;;;;;;5111199;27;20981;-73
2022/10/01 02:52:06;;;;;;;18.97;13.10;;;10.90;99.90;;;;;;5109746;27;20475;-73
2022/10/01 02:54:38;;;;;;;15.00;9.90;;;10.90;99.90;;;;;;5109954;27;20477;-73
2022/10/01 02:57:22;;;;;;;15.63;10.07;;;11.00;99.90;;;;;;5111011;27;20778;-73
2022/10/01 02:59:49;;;;;;;14.48;10.27;;;11.00;99.90;;;;;;5111444;27;20400;-73
2022/10/01 03:02:14;;;;;;;15.82;10.98;;;10.90;99.90;;;;;;5111118;27;20389;-73
2022/10/01 03:04:40;;;;;;;13.60;9.37;;;11.00;99.90;;;;;;5125100;27;20413;-73
2022/10/01 03:07:06;;;;;;;13.67;9.47;;;10.90;99.90;;;;;;5112540;27;20453;-73
2022/10/01 03:09:34;;;;;;;15.73;9.23;;;10.90;99.90;;;;;;5109634;27;20410;-73
2022/10/01 03:12:00;;;;;;;15.07;9.43;;;10.90;99.90;;;;;;5118617;27;20430;-73
2022/10/01 03:14:26;;;;;;;16.47;11.37;;;10.90;99.90;;;;;;5123209;27;20819;-72
2022/10/01 03:16:52;;;;;;;14.25;10.48;;;10.90;99.90;;;;;;5110436;27;20504;-73
2022/10/01 03:19:18;;;;;;;14.37;10.43;;;10.90;99.90;;;;;;5130156;27;20848;-73
2022/10/01 03:21:44;;;;;;;15.63;10.70;;;10.90;99.90;;;;;;5128576;27;20470;-72
2022/10/01 03:24:10;;;;;;;13.57;9.60;;;10.90;99.90;;;;;;5112633;27;20950;-71
2022/10/01 03:26:36;;;;;;;16.43;10.70;;;10.90;99.90;;;;;;5109862;28;20503;-71
2022/10/01 03:29:02;;;;;;;17.08;11.85;;;10.90;99.90;;;;;;5126534;27;20429;-72
2022/10/01 03:31:28;;;;;;;15.82;10.43;;;10.90;99.90;;;;;;5129613;27;20391;-71
2022/10/01 03:33:53;;;;;;;16.30;10.80;;;10.90;99.90;;;;;;5129675;27;20756;-72
2022/10/01 03:36:19;;;;;;;14.13;9.60;;;10.90;99.90;;;;;;5129910;27;20884;-71
2022/10/01 03:38:45;;;;;;;13.77;9.43;;;11.00;99.90;;;;;;5128498;27;20405;-71
2022/10/01 03:41:10;;;;;;;16.27;9.63;;;11.00;99.90;;;;;;5115899;27;20406;-72
2022/10/01 03:43:36;;;;;;;11.13;8.10;;;11.00;99.90;;;;;;5129775;27;20395;-72
2022/10/01 03:46:01;;;;;;;10.60;7.30;;;11.00;99.90;;;;;;5113202;27;20400;-72
2022/10/01 03:48:28;;;;;;;10.60;7.32;;;11.00;99.90;;;;;;5109308;28;20968;-71
2022/10/01 03:50:57;;;;;;;9.27;6.35;;;11.00;99.90;;;;;;5107703;27;20415;-71
2022/10/01 03:53:25;;;;;;;9.17;6.57;;;11.00;99.90;;;;;;5119312;27;20456;-71
2022/10/01 03:55:51;;;;;;;10.87;6.90;;;11.00;99.90;;;;;;5129501;27;20406;-71
2022/10/01 03:58:17;;;;;;;9.53;6.40;;;11.00;99.90;;;;;;5129651;27;20451;-71
2022/10/01 04:00:45;;;;;;;9.20;6.25;;;11.00;99.90;;;;;;5125148;27;20400;-71
2022/10/01 04:03:12;;;;;;;8.25;6.00;;;11.10;99.90;;;;;;5119417;27;20484;-71
2022/10/01 04:05:37;;;;;;;10.77;6.57;;;11.10;99.90;;;;;;5127902;27;20690;-71
2022/10/01 04:08:03;;;;;;;8.23;5.57;;;11.10;99.90;;;;;;5129176;27;20588;-72
2022/10/01 04:10:29;;;;;;;7.70;4.80;;;11.10;99.90;;;;;;5126790;27;20447;-72
2022/10/01 04:12:54;;;;;;;7.13;4.80;;;11.10;99.90;;;;;;5129237;27;20461;-72
2022/10/01 04:15:21;;;;;;;6.47;4.78;;;11.10;99.90;;;;;;5118569;27;20429;-72
2022/10/01 04:17:47;;;;;;;5.97;4.40;;;11.10;99.90;;;;;;5123321;27;20860;-73
2022/10/01 04:20:13;;;;;;;6.40;3.67;;;11.20;99.90;;;;;;5122361;27;20397;-72
2022/10/01 04:22:39;;;;;;;6.28;3.75;;;11.10;99.90;;;;;;5122686;27;20387;-72
2022/10/01 04:25:09;;;;;;;5.60;3.70;;;11.20;99.90;;;;;;5116131;27;20407;-72
2022/10/01 04:27:36;;;;;;;5.20;3.30;;;11.20;99.90;;;;;;5127026;27;20461;-72
2022/10/01 04:30:04;;;;;;;5.45;3.20;;;11.20;99.90;;;;;;5128297;27;20462;-74
2022/10/01 04:32:30;;;;;;;3.67;2.67;;;11.20;99.90;;;;;;5127849;27;20441;-72
2022/10/01 04:34:56;;;;;;;4.63;2.83;;;11.20;99.90;;;;;;5128562;27;20900;-72
2022/10/01 04:37:22;;;;;;;4.00;2.72;;;11.20;99.90;;;;;;5126019;27;20461;-72
2022/10/01 04:39:48;;;;;;;3.83;2.30;;;11.20;99.90;;;;;;5107438;28;20828;-74
2022/10/01 04:42:14;;;;;;;4.75;2.70;;;11.30;99.90;;;;;;5110771;27;20507;-72
2022/10/01 04:44:40;;;;;;;3.22;2.15;;;11.30;99.90;;;;;;5128482;27;20760;-72
2022/10/01 04:47:07;;;;;;;2.97;2.10;;;11.30;99.90;;;;;;5110674;27;20763;-72
2022/10/01 04:49:33;;;;;;;3.53;2.55;;;11.30;99.90;;;;;;5121508;27;20429;-73
2022/10/01 04:51:59;;;;;;;3.45;2.47;;;11.30;99.90;;;;;;5117016;27;20892;-72
2022/10/01 04:54:25;;;;;;;4.13;2.53;;;11.30;99.90;;;;;;5128456;27;20761;-72
2022/10/01 04:56:51;;;;;;;3.63;2.17;;;11.30;99.90;;;;;;5119035;27;20425;-73
2022/10/01 04:59:17;;;;;;;2.85;1.90;;;11.30;99.90;;;;;;5123434;27;20483;-72
2022/10/01 05:01:43;;;;;;;3.42;2.00;;;11.30;99.90;;;;;;5128122;27;20427;-72
2022/10/01 05:04:09;;;;;;;3.13;2.10;;;11.30;99.90;;;;;;5127740;27;20471;-72
2022/10/01 05:06:34;;;;;;;3.50;2.10;;;11.30;99.90;;;;;;5127735;27;20729;-72
2022/10/01 05:09:00;;;;;;;3.10;2.10;;;11.30;99.90;;;;;;5127523;27;20422;-72
2022/10/01 05:11:26;;;;;;;3.20;1.90;;;11.40;99.90;;;;;;5127837;27;21134;-72
2022/10/01 05:13:51;;;;;;;3.60;2.20;;;11.30;99.90;;;;;;5127867;27;20888;-72
2022/10/01 05:16:17;;;;;;;3.03;2.10;;;11.40;99.90;;;;;;5128149;27;20394;-72
2022/10/01 05:18:43;;;;;;;3.28;2.22;;;11.40;99.90;;;;;;5127273;27;20398;-72
2022/10/01 05:21:10;;;;;;;3.20;2.20;;;11.40;99.90;;;;;;5128096;27;20414;-72
2022/10/01 05:23:37;;;;;;;4.13;2.40;;;11.50;99.90;;;;;;5127201;27;20459;-72
2022/10/01 05:26:04;;;;;;;4.10;2.50;;;11.50;99.90;;;;;;5127441;27;20411;-72
2022/10/01 05:28:31;;;;;;;3.95;2.40;;;11.50;99.90;;;;;;5127042;27;20468;-73
2022/10/01 05:31:00;;;;;;;4.03;2.63;;;11.50;99.90;;;;;;5128226;27;20398;-72
2022/10/01 05:33:27;;;;;;;3.00;2.33;;;11.50;99.90;;;;;;5126701;27;20536;-72
2022/10/01 05:35:52;;;;;;;4.93;2.90;;;11.50;99.90;;;;;;5127492;27;20477;-72
2022/10/01 05:38:18;;;;;;;3.97;2.83;;;11.60;99.90;;;;;;5127582;27;20495;-72
2022/10/01 05:40:45;;;;;;;5.10;2.87;;;11.60;99.90;;;;;;5127763;27;21058;-72
2022/10/01 05:43:11;;;;;;;4.35;3.08;;;11.60;99.90;;;;;;5125767;27;20404;-73
2022/10/01 05:45:37;;;;;;;3.60;2.60;;;11.60;99.90;;;;;;5130771;27;20430;-72
2022/10/01 05:48:05;;;;;;;4.97;2.95;;;11.60;99.90;;;;;;5131860;27;20414;-72
2022/10/01 05:50:33;;;;;;;5.15;3.22;;;11.60;99.90;;;;;;5132027;27;20555;-72
2022/10/01 05:53:00;;;;;;;4.30;2.90;;;11.60;99.90;;;;;;5130953;27;20402;-72
2022/10/01 05:55:32;;;;;;;5.88;3.17;;;11.60;99.90;;;;;;5130628;27;20931;-72
2022/10/01 05:58:06;;;;;;;3.90;2.90;;;11.60;99.90;;;;;;5125952;27;20396;-73
2022/10/01 06:00:33;;;;;;;5.30;3.33;;;11.70;99.90;;;;;;5110992;28;20400;-72
2022/10/01 06:03:00;;;;;;;4.88;3.20;;;11.70;99.90;;;;;;5130183;27;20499;-73
2022/10/01 06:05:27;;;;;;;4.63;3.40;;;11.70;99.90;;;;;;5129818;27;20406;-72
2022/10/01 06:07:53;;;;;;;5.05;3.60;;;11.70;99.90;;;;;;5130355;27;20547;-72
2022/10/01 06:10:19;;;;;;;6.10;3.63;;;11.70;99.90;;;;;;5130396;27;20955;-71
2022/10/01 06:12:47;;;;;;;6.28;3.78;;;11.80;99.90;;;;;;5110877;27;20400;-71
2022/10/01 06:15:14;;;;;;;6.35;3.92;;;11.80;99.90;;;;;;5111479;27;20401;-71
2022/10/01 06:17:43;;;;;;;5.77;3.90;;;11.80;99.90;;;;;;5097914;28;20491;-71
2022/10/01 06:20:11;;;;;;;7.18;3.92;;;11.80;99.90;;;;;;5110244;27;20406;-71
2022/10/01 06:22:38;;;;;;;5.65;3.90;;;11.80;99.90;;;;;;5109743;28;20416;-71
2022/10/01 06:25:05;;;;;;;6.53;4.10;;;11.80;99.90;;;;;;5113613;27;20410;-72
2022/10/01 06:27:30;;;;;;;7.55;4.28;;;11.80;99.90;;;;;;5117164;27;20403;-72
2022/10/01 06:29:56;;;;;;;7.05;4.20;;;11.70;99.90;;;;;;5126971;27;20395;-72
2022/10/01 06:32:22;;;;;;;6.83;4.80;;;11.80;99.90;;;;;;5110928;28;20397;-71
2022/10/01 06:34:47;;;;;;;9.17;5.00;;;11.80;99.90;;;;;;5110932;27;20445;-71
2022/10/01 06:37:13;;;;;;;7.53;4.88;;;11.90;99.90;;;;;;5110353;27;20393;-71
2022/10/01 06:39:38;;;;;;;6.67;4.40;;;11.90;99.90;;;;;;5110588;27;20442;-73
2022/10/01 06:42:04;;;;;;;5.72;4.57;;;12.00;99.90;;;;;;5110571;27;21145;-73
2022/10/01 06:44:30;;;;;;;8.10;4.80;;;12.00;99.90;;;;;;5113423;27;20395;-73
2022/10/01 06:46:55;;;;;;;8.10;5.00;;;12.00;99.90;;;;;;5108936;28;20778;-72
2022/10/01 06:49:21;;;;;;;6.80;4.50;;;12.00;99.90;;;;;;5109591;28;20505;-74
2022/10/01 06:54:31;;;;;;;9.02;4.40;;;12.10;99.90;;;;;;5109519;28;20824;-73
2022/10/01 06:56:57;;;;;;;9.02;4.47;;;12.10;99.90;;;;;;5107762;28;20396;-73
2022/10/01 06:59:22;;;;;;;9.50;4.83;;;12.10;99.90;;;;;;5115787;27;20413;-73
2022/10/01 07:01:49;;;;;;;8.93;4.90;;;12.20;99.90;;;;;;5112788;27;20387;-73
2022/10/01 07:04:14;;;;;;;7.03;4.50;;;12.20;99.90;;;;;;5107978;28;20416;-74
2022/10/01 07:06:40;;;;;;;8.43;4.83;;;12.20;99.90;;;;;;5111096;27;20396;-74
2022/10/01 07:09:06;;;;;;;8.73;5.35;;;12.30;99.90;;;;;;5108537;28;20527;-73
2022/10/01 07:11:31;;;;;;;9.27;4.80;;;12.40;99.90;;;;;;5108976;28;20396;-73
2022/10/01 07:13:57;;;;;;;8.68;4.90;;;12.50;99.90;;;;;;5108642;27;20403;-74
2022/10/01 07:16:23;;;;;;;10.05;4.93;;;12.50;99.90;;;;;;5108189;28;20499;-73
2022/10/01 07:18:48;;;;;;;9.57;5.20;;;12.60;99.90;;;;;;5106940;28;20476;-74
2022/10/01 07:21:14;;;;;;;10.13;5.38;;;12.60;99.90;;;;;;5107855;28;20492;-74
2022/10/01 07:23:40;;;;;;;8.20;5.50;;;12.70;99.90;;;;;;5106369;28;20447;-75
2022/10/01 07:26:08;;;;;;;13.38;5.50;;;12.70;99.90;;;;;;5110123;27;20409;-73
2022/10/01 07:28:34;;;;;;;9.90;5.35;;;12.80;99.90;;;;;;5115947;27;20910;-72
2022/10/01 07:31:05;;;;;;;8.20;5.30;;;12.80;99.90;;;;;;5108846;27;20392;-73
2022/10/01 07:33:31;;;;;;;11.02;5.72;;;12.90;99.90;;;;;;5112052;27;20404;-73
2022/10/01 07:36:00;;;;;;;8.35;5.20;;;12.90;99.90;;;;;;5109214;27;20392;-72
2022/10/01 07:38:25;;;;;;;10.77;5.55;;;12.90;99.90;;;;;;5112502;27;20395;-74
2022/10/01 07:40:53;;;;;;;11.97;5.50;;;13.00;99.90;;;;;;5111099;27;20404;-74
2022/10/01 07:43:18;;;;;;;10.63;5.65;;;13.00;99.90;;;;;;5117885;27;20400;-73
2022/10/01 07:45:46;;;;;;;11.20;5.78;;;13.00;99.90;;;;;;5126397;27;20394;-74
2022/10/01 07:48:13;;;;;;;12.85;5.80;;;13.10;99.90;;;;;;5135071;27;20941;-74
2022/10/01 07:50:42;;;;;;;12.53;5.77;;;13.10;99.90;;;;;;5119938;27;21065;-71
2022/10/01 07:53:08;;;;;;;10.70;5.35;;;13.10;99.90;;;;;;5105249;28;20488;-71
2022/10/01 07:55:33;;;;;;;12.83;5.80;;;13.20;99.90;;;;;;5108919;28;20898;-71
2022/10/01 07:58:00;;;;;;;10.18;5.22;;;13.20;99.90;;;;;;5117434;27;20399;-72
2022/10/01 08:00:27;;;;;;;13.50;5.80;;;13.30;99.90;;;;;;5111766;27;20400;-72
2022/10/01 08:02:55;;;;;;;11.77;5.15;;;13.30;99.90;;;;;;5108543;28;20407;-72
2022/10/01 08:05:29;;;;;;;11.35;5.32;;;13.30;99.90;;;;;;5109192;28;20397;-72
2022/10/01 08:08:00;;;;;;;10.52;5.00;;;13.30;99.90;;;;;;5091060;28;20432;-73
2022/10/01 08:10:26;;;;;;;10.30;5.20;;;13.40;99.90;;;;;;5105320;27;20427;-72
2022/10/01 08:12:58;;;;;;;14.40;5.43;;;13.40;99.90;;;;;;5106210;28;20424;-73
2022/10/01 08:15:23;;;;;;;13.18;5.03;;;13.50;99.90;;;;;;5110494;28;20413;-72
2022/10/01 08:17:49;;;;;;;12.60;5.10;;;13.50;99.90;;;;;;5122053;27;20445;-73
2022/10/01 08:20:15;;;;;;;10.77;5.33;;;13.60;99.90;;;;;;5114542;27;20444;-72
2022/10/01 08:22:40;;;;;;;9.48;4.60;;;13.60;99.90;;;;;;5115031;27;20404;-71
2022/10/01 08:25:06;;;;;;;11.03;4.30;;;13.70;99.90;;;;;;5109548;28;20400;-72
2022/10/01 08:27:32;;;;;;;9.82;4.30;;;13.80;99.90;;;;;;5109929;28;20411;-72
2022/10/01 08:29:58;;;;;;;8.23;4.00;;;13.80;99.90;;;;;;5108566;28;20392;-72
2022/10/01 08:32:25;;;;;;;12.23;4.10;;;13.90;99.90;;;;;;5109808;28;20479;-73
2022/10/01 08:34:54;;;;;;;10.35;3.75;;;13.90;99.90;;;;;;5107790;28;20981;-72
2022/10/01 08:37:27;;;;;;;11.35;3.40;;;14.00;99.90;;;;;;5109585;28;20396;-72
2022/10/01 08:39:53;;;;;;;10.05;2.85;;;14.10;99.90;;;;;;5108775;28;20924;-72
2022/10/01 08:42:20;;;;;;;10.27;2.80;;;14.10;99.90;;;;;;5107291;28;20512;-72
2022/10/01 08:44:47;;;;;;;8.40;2.15;;;14.20;99.90;;;;;;5108093;28;20401;-72
2022/10/01 08:47:23;;;;;;;9.52;2.08;;;14.30;99.90;;;;;;5109398;28;20392;-73
2022/10/01 08:49:58;;;;;;;9.25;2.10;;;14.40;99.90;;;;;;5107958;27;20419;-72
2022/10/01 08:52:24;;;;;;;9.00;1.48;;;14.40;99.90;;;;;;5105284;28;20416;-72
2022/10/01 08:54:58;;;;;;;10.23;1.70;;;14.50;99.90;;;;;;5105439;28;20420;-73
2022/10/01 08:57:30;;;;;;;9.70;1.80;;;14.60;99.90;;;;;;5108823;28;20397;-73
2022/10/01 09:00:05;;;;;;;8.63;1.30;;;14.70;99.90;;;;;;5111259;27;20400;-72
2022/10/01 09:02:38;;;;;;;10.02;1.90;;;14.80;99.90;;;;;;5106576;28;20415;-73
2022/10/01 09:05:05;;;;;;;7.85;1.60;;;15.10;99.90;;;;;;5108472;28;20970;-73
2022/10/01 09:07:56;;;;;;;9.38;1.63;;;15.90;99.90;;;;;;5101651;28;20422;-73
2022/10/01 09:10:43;;;;;;;8.73;1.45;;;17.10;99.90;;;;;;5110604;27;20427;-73
2022/10/01 09:13:12;;;;;;;8.13;1.13;;;18.00;99.90;;;;;;5114723;28;20495;-73
2022/10/01 09:15:55;;;;;;;7.68;1.27;;;18.90;99.90;;;;;;5113477;27;20522;-73
2022/10/01 09:18:46;;;;;;;10.73;1.52;;;19.70;99.90;;;;;;5110336;28;20419;-74
2022/10/01 09:21:32;;;;;;;10.25;1.55;;;20.40;99.90;;;;;;5111734;27;20767;-73
2022/10/01 09:24:03;;;;;;;7.97;1.30;;;20.90;99.90;;;;;;5088046;28;20416;-74
2022/10/01 09:26:29;;;;;;;7.50;1.05;;;21.00;99.90;;;;;;5122280;27;20928;-73
2022/10/01 09:28:59;;;;;;;9.52;1.13;;;20.40;99.90;;;;;;5120157;27;20550;-72
2022/10/01 09:31:44;;;;;;;14.73;1.60;;;19.50;99.90;;;;;;5122429;27;20426;-72
2022/10/01 09:34:13;;;;;;;8.88;1.15;;;18.70;99.90;;;;;;5122658;27;20398;-72
2022/10/01 09:37:04;;;;;;;10.75;1.80;;;18.10;99.90;;;;;;5118347;27;20404;-72
2022/10/01 09:39:39;;;;;;;7.85;1.20;;;17.60;99.90;;;;;;5111396;27;20533;-72
2022/10/01 09:42:05;;;;;;;10.30;1.40;;;17.20;99.90;;;;;;5119847;27;20400;-71
2022/10/01 09:44:31;;;;;;;7.07;1.10;;;17.00;99.90;;;;;;5113915;27;20491;-72
2022/10/01 09:46:57;;;;;;;7.20;1.10;;;16.90;99.90;;;;;;5120453;27;20418;-71
2022/10/01 09:49:38;;;;;;;6.37;1.10;;;17.60;99.90;;;;;;5120581;27;20435;-72
2022/10/01 09:52:25;;;;;;;5.55;0.75;;;18.80;99.90;;;;;;5123544;27;20486;-73
2022/10/01 09:55:08;;;;;;;6.65;0.80;;;19.70;99.90;;;;;;5108713;28;20422;-73
2022/10/01 09:57:39;;;;;;;8.45;1.00;;;20.60;99.90;;;;;;5112619;27;20427;-73
2022/10/01 10:00:22;;;;;;;6.70;0.77;;;21.20;99.90;;;;;;5118358;27;20908;-73
2022/10/01 10:02:49;;;;;;;5.03;0.70;;;21.80;99.90;;;;;;5107845;27;20419;-73
2022/10/01 10:05:21;;;;;;;9.43;1.27;;;22.10;99.90;;;;;;5116224;27;20406;-73
2022/10/01 10:07:52;;;;;;;7.07;0.90;;;22.50;99.90;;;;;;5119793;27;20412;-73
2022/10/01 10:10:29;;;;;;;8.20;1.10;;;22.60;99.90;;;;;;5116000;27;20488;-73
2022/10/01 10:13:03;;;;;;;5.87;0.90;;;22.40;99.90;;;;;;5108851;28;20443;-73
2022/10/01 10:15:31;;;;;;;8.27;1.20;;;22.30;99.90;;;;;;5109459;28;20441;-73
2022/10/01 10:18:11;;;;;;;4.97;0.80;;;21.80;99.90;;;;;;5118140;27;20400;-74
2022/10/01 10:20:40;;;;;;;4.95;0.77;;;20.70;99.90;;;;;;5111368;28;20396;-73
2022/10/01 10:23:17;;;;;;;4.90;0.60;;;19.70;99.90;;;;;;5111365;28;20396;-72
2022/10/01 10:25:54;;;;;;;5.03;0.90;;;18.60;99.90;;;;;;5109817;28;20448;-74
2022/10/01 10:28:23;;;;;;;5.18;0.60;;;17.80;99.90;;;;;;5111076;28;20471;-74
2022/10/01 10:30:56;;;;;;;4.32;0.57;;;17.30;99.90;;;;;;5109443;28;20454;-73
2022/10/01 10:33:25;;;;;;;3.78;0.60;;;16.80;99.90;;;;;;5106454;28;20461;-74
2022/10/01 10:35:59;;;;;;;4.07;0.70;;;16.50;99.90;;;;;;5111399;28;20773;-73
2022/10/01 10:38:30;;;;;;;5.43;0.80;;;16.40;99.90;;;;;;5110329;27;20408;-74
2022/10/01 10:40:56;;;;;;;4.78;0.65;;;16.40;99.90;;;;;;5122426;27;20426;-73
2022/10/01 10:43:26;;;;;;;6.20;1.00;;;16.30;99.90;;;;;;5124398;27;20997;-74
2022/10/01 10:45:55;;;;;;;7.45;0.88;;;16.20;99.90;;;;;;5110981;28;20423;-74
2022/10/01 10:48:24;;;;;;;6.22;0.60;;;16.10;99.90;;;;;;5112994;27;20423;-74
2022/10/01 10:50:58;;;;;;;4.43;0.70;;;15.90;99.90;;;;;;5110544;28;20449;-74
2022/10/01 10:53:26;;;;;;;6.63;0.70;;;15.80;99.90;;;;;;5109631;28;20500;-74
2022/10/01 10:55:59;;;;;;;3.90;0.73;;;15.60;99.90;;;;;;5110490;28;20405;-74
2022/10/01 10:58:27;;;;;;;4.10;0.60;;;15.50;99.90;;;;;;5109454;28;20744;-74
2022/10/01 11:00:57;;;;;;;2.80;0.22;;;15.40;99.90;;;;;;5109434;28;20447;-74
2022/10/01 11:03:27;;;;;;;1.20;0.20;;;15.30;99.90;;;;;;5096024;28;20403;-74
2022/10/01 11:05:55;;;;;;;2.70;0.30;;;15.10;99.90;;;;;;5110228;28;20496;-74
2022/10/01 11:08:26;;;;;;;3.20;0.45;;;14.90;99.90;;;;;;5109672;28;20420;-74
2022/10/01 11:11:10;;;;;;;3.45;0.40;;;14.80;99.90;;;;;;5109827;28;20416;-74
2022/10/01 11:13:48;;;;;;;2.97;0.30;;;14.70;99.90;;;;;;5107923;28;20832;-74
2022/10/01 11:16:35;;;;;;;4.05;0.40;;;14.70;99.90;;;;;;5109644;28;20409;-74
2022/10/01 11:19:27;;;;;;;4.80;0.57;;;14.60;99.90;;;;;;5103308;28;20487;-75
2022/10/01 11:22:11;;;;;;;4.30;0.50;;;14.60;99.90;;;;;;5109701;28;20420;-74
2022/10/01 11:24:37;;;;;;;4.22;0.50;;;14.70;99.90;;;;;;5109134;28;20431;-74
2022/10/01 11:27:14;;;;;;;3.73;0.70;;;14.80;99.90;;;;;;5110596;27;20422;-75
2022/10/01 11:30:02;;;;;;;3.85;0.50;;;14.80;99.90;;;;;;5115848;27;20427;-75
2022/10/01 11:32:38;;;;;;;4.20;0.75;;;14.80;99.90;;;;;;5114922;27;20435;-74
2022/10/01 11:35:22;;;;;;;4.10;0.73;;;14.80;99.90;;;;;;5107894;28;20420;-75
2022/10/01 11:38:07;;;;;;;4.45;0.40;;;14.80;99.90;;;;;;5108829;28;20470;-75
2022/10/01 11:40:40;;;;;;;4.00;0.50;;;14.80;99.90;;;;;;5109995;28;20408;-75
2022/10/01 11:43:47;;;;;;;2.58;0.52;;;15.10;99.90;;;;;;5106853;27;20463;-75
2022/10/01 11:46:21;;;;;;;4.07;0.30;;;15.50;99.90;;;;;;5095020;28;20447;-75
2022/10/01 11:48:52;;;;;;;1.90;0.50;;;17.00;99.90;;;;;;5119807;27;20443;-72
2022/10/01 11:51:24;;;;;;;2.90;0.43;;;18.10;99.90;;;;;;5108150;28;20421;-73
2022/10/01 11:54:03;;;;;;;2.38;0.40;;;19.10;99.90;;;;;;5107263;28;20408;-74
2022/10/01 11:59:33;;;;;;;2.72;0.40;;;20.50;99.90;;;;;;5105792;28;20427;-72
2022/10/01 12:02:09;;;;;;;3.80;0.63;;;21.20;99.90;;;;;;5108214;28;20431;-72
2022/10/01 12:04:49;;;;;;;3.40;0.40;;;21.70;99.90;;;;;;5109402;28;20412;-72
2022/10/01 12:08:01;;;;;;;3.00;0.43;;;22.20;99.90;;;;;;5109444;28;20465;-72
2022/10/01 12:11:00;;;;;;;2.85;0.50;;;23.00;99.90;;;;;;5096374;28;20424;-72
2022/10/01 12:13:41;;;;;;;4.30;0.40;;;23.60;99.90;;;;;;5105055;28;20511;-72
2022/10/01 12:16:22;;;;;;;3.28;0.50;;;24.00;99.90;;;;;;5108688;28;20932;-71
2022/10/01 12:18:59;;;;;;;4.70;0.60;;;23.90;99.90;;;;;;5109214;28;20412;-72
2022/10/01 12:21:37;;;;;;;5.00;0.60;;;23.00;99.90;;;;;;5107615;28;20408;-72
2022/10/01 12:24:24;;;;;;;4.57;0.60;;;22.30;99.90;;;;;;5111760;27;20433;-73
2022/10/01 12:27:00;;;;;;;4.97;1.10;;;21.70;99.90;;;;;;5108821;27;20404;-74
2022/10/01 12:29:42;;;;;;;5.45;0.60;;;21.00;99.90;;;;;;5116323;27;20517;-72
2022/10/01 12:32:36;;;;;;;4.95;0.60;;;20.80;99.90;;;;;;5109319;27;20420;-73
2022/10/01 12:35:24;;;;;;;5.70;0.60;;;21.00;99.90;;;;;;5105015;28;20513;-73
2022/10/01 12:38:05;;;;;;;7.70;0.60;;;21.90;99.90;;;;;;5108893;28;20962;-73
2022/10/01 12:40:52;;;;;;;5.50;1.00;;;21.70;99.90;;;;;;5106009;28;20965;-72
2022/10/01 12:43:27;;;;;;;6.05;0.80;;;22.40;99.90;;;;;;5096388;28;20913;-74
2022/10/01 12:46:30;;;;;;;5.50;0.70;;;23.20;99.90;;;;;;5108319;28;20453;-73
2022/10/01 12:49:27;;;;;;;8.50;0.90;;;23.80;99.90;;;;;;5096123;28;20564;-73
2022/10/01 12:52:10;;;;;;;7.38;1.00;;;24.00;97.70;;;;;;5108749;28;20424;-73
2022/10/01 12:54:42;;;;;;;7.68;1.25;;;24.10;97.00;;;;;;5108323;28;20414;-73
2022/10/01 12:57:27;;;;;;;4.40;0.80;;;24.00;96.30;;;;;;5096778;28;20780;-74
2022/10/01 13:00:01;;;;;;;5.93;0.85;;;23.20;95.80;;;;;;5107680;28;20412;-77
2022/10/01 13:02:49;;;;;;;7.60;1.17;;;21.90;96.80;;;;;;5107238;28;20981;-73
2022/10/01 13:05:32;;;;;;;9.30;1.23;;;20.80;97.30;;;;;;5108486;28;21152;-72
2022/10/01 13:08:48;;;;;;;7.97;1.40;;;20.40;98.80;;;;;;5103606;28;20999;-73